Terminal Aerodrome Forecast
Issued by NWS

Home | Current Version | Previous Version | Text Only | Print | Product List | Glossary On
Versions: 1 2 3 4 5 6 7 8 9 10 11 12 13 14
000
FTUS44 KLZK 260520
TAFPBF
TAF
KPBF 260520Z 2606/2706 17005KT P6SM SCT050 BKN250
     FM260800 18006KT 5SM BR BKN025 OVC050
      TEMPO 2609/2613 2SM BR BKN005 OVC020
     FM261500 17008KT P6SM BKN020 BKN250
     FM261800 18010KT P6SM VCTS SCT030CB BKN100=

USA.gov is the U.S. government's official web portal to all federal, state and local government web resources and services.